sensor_id;sensor_type;location;lat;lon;timestamp;P1;durP1;ratioP1;P2;durP2;ratioP2
25649;SDS011;13505;45.196;5.696;2023-07-30T04:33:44;6.78;;;4.40;;
25649;SDS011;13505;45.196;5.696;2023-07-30T04:38:34;6.07;;;4.13;;
25649;SDS011;13505;45.196;5.696;2023-07-30T04:43:26;5.55;;;4.30;;
25649;SDS011;13505;45.196;5.696;2023-07-30T04:48:16;9.38;;;4.47;;
25649;SDS011;13505;45.196;5.696;2023-07-30T04:53:07;5.28;;;4.20;;
25649;SDS011;13505;45.196;5.696;2023-07-30T04:57:58;7.80;;;4.03;;
25649;SDS011;13505;45.196;5.696;2023-07-30T05:02:48;6.03;;;4.20;;
25649;SDS011;13505;45.196;5.696;2023-07-30T05:07:39;7.47;;;3.97;;
25649;SDS011;13505;45.196;5.696;2023-07-30T05:12:29;9.53;;;3.93;;
25649;SDS011;13505;45.196;5.696;2023-07-30T05:17:19;5.47;;;4.13;;
25649;SDS011;13505;45.196;5.696;2023-07-30T05:22:10;4.93;;;3.30;;
25649;SDS011;13505;45.196;5.696;2023-07-30T05:27:00;6.07;;;3.95;;
25649;SDS011;13505;45.196;5.696;2023-07-30T05:31:50;5.47;;;3.65;;
25649;SDS011;13505;45.196;5.696;2023-07-30T05:36:41;5.65;;;4.10;;
25649;SDS011;13505;45.196;5.696;2023-07-30T05:41:31;5.32;;;3.95;;
25649;SDS011;13505;45.196;5.696;2023-07-30T05:46:21;7.43;;;4.40;;
25649;SDS011;13505;45.196;5.696;2023-07-30T05:51:11;9.68;;;4.10;;
25649;SDS011;13505;45.196;5.696;2023-07-30T05:56:02;6.20;;;4.13;;
25649;SDS011;13505;45.196;5.696;2023-07-30T06:00:52;8.02;;;4.30;;
25649;SDS011;13505;45.196;5.696;2023-07-30T06:05:42;4.97;;;4.17;;
25649;SDS011;13505;45.196;5.696;2023-07-30T06:10:36;4.87;;;4.30;;
25649;SDS011;13505;45.196;5.696;2023-07-30T06:15:27;11.50;;;4.95;;
25649;SDS011;13505;45.196;5.696;2023-07-30T06:20:17;7.30;;;3.90;;
25649;SDS011;13505;45.196;5.696;2023-07-30T06:25:08;6.10;;;4.13;;
25649;SDS011;13505;45.196;5.696;2023-07-30T06:29:58;6.93;;;4.43;;
25649;SDS011;13505;45.196;5.696;2023-07-30T06:34:48;7.10;;;4.20;;
25649;SDS011;13505;45.196;5.696;2023-07-30T06:39:39;8.97;;;4.40;;
25649;SDS011;13505;45.196;5.696;2023-07-30T06:44:29;5.25;;;4.55;;
25649;SDS011;13505;45.196;5.696;2023-07-30T06:49:19;6.35;;;4.18;;
25649;SDS011;13505;45.196;5.696;2023-07-30T06:54:10;6.40;;;4.60;;
25649;SDS011;13505;45.196;5.696;2023-07-30T06:59:01;9.30;;;4.22;;
25649;SDS011;13505;45.196;5.696;2023-07-30T07:03:52;8.52;;;4.10;;
25649;SDS011;13505;45.196;5.696;2023-07-30T07:08:42;7.18;;;4.70;;
25649;SDS011;13505;45.196;5.696;2023-07-30T07:13:32;10.43;;;4.47;;
25649;SDS011;13505;45.196;5.696;2023-07-30T07:18:23;7.85;;;4.53;;
25649;SDS011;13505;45.196;5.696;2023-07-30T07:23:13;8.50;;;4.85;;
25649;SDS011;13505;45.196;5.696;2023-07-30T07:28:03;5.93;;;4.33;;
25649;SDS011;13505;45.196;5.696;2023-07-30T07:32:54;7.80;;;5.07;;
25649;SDS011;13505;45.196;5.696;2023-07-30T07:37:45;8.68;;;4.55;;
25649;SDS011;13505;45.196;5.696;2023-07-30T07:42:35;8.88;;;5.30;;
25649;SDS011;13505;45.196;5.696;2023-07-30T07:47:26;7.25;;;4.97;;
25649;SDS011;13505;45.196;5.696;2023-07-30T07:52:16;7.00;;;5.05;;
25649;SDS011;13505;45.196;5.696;2023-07-30T07:57:07;7.07;;;5.25;;
25649;SDS011;13505;45.196;5.696;2023-07-30T08:01:58;7.10;;;4.85;;
25649;SDS011;13505;45.196;5.696;2023-07-30T08:06:49;7.60;;;4.00;;
25649;SDS011;13505;45.196;5.696;2023-07-30T08:11:39;6.80;;;4.10;;
25649;SDS011;13505;45.196;5.696;2023-07-30T08:16:29;5.80;;;3.27;;
25649;SDS011;13505;45.196;5.696;2023-07-30T08:21:20;4.50;;;2.97;;
25649;SDS011;13505;45.196;5.696;2023-07-30T08:26:10;3.92;;;2.60;;
25649;SDS011;13505;45.196;5.696;2023-07-30T08:31:01;2.65;;;2.45;;
25649;SDS011;13505;45.196;5.696;2023-07-30T08:35:54;2.65;;;2.45;;
25649;SDS011;13505;45.196;5.696;2023-07-30T08:40:45;4.30;;;2.53;;
25649;SDS011;13505;45.196;5.696;2023-07-30T08:45:36;3.15;;;2.75;;
25649;SDS011;13505;45.196;5.696;2023-07-30T08:50:26;3.50;;;2.58;;
25649;SDS011;13505;45.196;5.696;2023-07-30T08:55:18;3.60;;;3.20;;
25649;SDS011;13505;45.196;5.696;2023-07-30T09:00:09;4.18;;;3.40;;
25649;SDS011;13505;45.196;5.696;2023-07-30T09:05:00;3.78;;;3.35;;
25649;SDS011;13505;45.196;5.696;2023-07-30T09:09:51;3.92;;;3.00;;
25649;SDS011;13505;45.196;5.696;2023-07-30T09:14:42;3.70;;;3.17;;
25649;SDS011;13505;45.196;5.696;2023-07-30T09:19:36;3.42;;;3.13;;
25649;SDS011;13505;45.196;5.696;2023-07-30T09:24:26;3.00;;;2.70;;
25649;SDS011;13505;45.196;5.696;2023-07-30T09:29:16;4.50;;;2.90;;
25649;SDS011;13505;45.196;5.696;2023-07-30T09:34:07;6.03;;;2.70;;
25649;SDS011;13505;45.196;5.696;2023-07-30T09:38:58;4.57;;;2.67;;
25649;SDS011;13505;45.196;5.696;2023-07-30T09:43:48;3.83;;;2.80;;
25649;SDS011;13505;45.196;5.696;2023-07-30T09:48:48;3.72;;;2.70;;
25649;SDS011;13505;45.196;5.696;2023-07-30T09:53:38;5.63;;;2.50;;
25649;SDS011;13505;45.196;5.696;2023-07-30T09:58:30;3.22;;;2.92;;
25649;SDS011;13505;45.196;5.696;2023-07-30T10:03:20;3.40;;;3.08;;
25649;SDS011;13505;45.196;5.696;2023-07-30T10:08:12;3.63;;;3.22;;
25649;SDS011;13505;45.196;5.696;2023-07-30T10:13:10;4.93;;;3.50;;
25649;SDS011;13505;45.196;5.696;2023-07-30T10:18:01;7.53;;;3.50;;
25649;SDS011;13505;45.196;5.696;2023-07-30T10:22:55;4.00;;;3.40;;
25649;SDS011;13505;45.196;5.696;2023-07-30T10:27:49;5.70;;;3.45;;
25649;SDS011;13505;45.196;5.696;2023-07-30T10:37:47;6.45;;;2.90;;
25649;SDS011;13505;45.196;5.696;2023-07-30T10:42:37;5.60;;;3.43;;
25649;SDS011;13505;45.196;5.696;2023-07-30T10:47:28;4.50;;;2.87;;
25649;SDS011;13505;45.196;5.696;2023-07-30T10:52:18;5.37;;;3.10;;
25649;SDS011;13505;45.196;5.696;2023-07-30T10:57:08;3.45;;;2.90;;
25649;SDS011;13505;45.196;5.696;2023-07-30T11:01:59;4.13;;;3.17;;
25649;SDS011;13505;45.196;5.696;2023-07-30T11:06:50;4.47;;;2.73;;
25649;SDS011;13505;45.196;5.696;2023-07-30T11:11:41;5.63;;;2.95;;
25649;SDS011;13505;45.196;5.696;2023-07-30T11:16:32;3.42;;;2.78;;
25649;SDS011;13505;45.196;5.696;2023-07-30T11:21:22;7.90;;;2.90;;
25649;SDS011;13505;45.196;5.696;2023-07-30T11:26:14;4.95;;;2.60;;
25649;SDS011;13505;45.196;5.696;2023-07-30T11:31:09;3.03;;;2.20;;
25649;SDS011;13505;45.196;5.696;2023-07-30T11:36:02;2.80;;;2.38;;
25649;SDS011;13505;45.196;5.696;2023-07-30T11:40:53;3.33;;;2.58;;
25649;SDS011;13505;45.196;5.696;2023-07-30T11:45:44;4.18;;;2.40;;
25649;SDS011;13505;45.196;5.696;2023-07-30T11:50:47;3.20;;;2.75;;
25649;SDS011;13505;45.196;5.696;2023-07-30T11:55:41;3.00;;;2.45;;
25649;SDS011;13505;45.196;5.696;2023-07-30T12:00:33;4.05;;;2.30;;
25649;SDS011;13505;45.196;5.696;2023-07-30T12:05:32;2.20;;;2.00;;
25649;SDS011;13505;45.196;5.696;2023-07-30T12:10:24;2.88;;;1.90;;
25649;SDS011;13505;45.196;5.696;2023-07-30T12:15:14;2.83;;;2.30;;
25649;SDS011;13505;45.196;5.696;2023-07-30T12:20:05;4.07;;;2.40;;
25649;SDS011;13505;45.196;5.696;2023-07-30T12:24:56;3.60;;;2.60;;
25649;SDS011;13505;45.196;5.696;2023-07-30T12:29:46;3.05;;;2.55;;
25649;SDS011;13505;45.196;5.696;2023-07-30T12:34:37;3.70;;;2.27;;
25649;SDS011;13505;45.196;5.696;2023-07-30T12:39:27;4.00;;;2.20;;
25649;SDS011;13505;45.196;5.696;2023-07-30T12:44:18;4.93;;;2.35;;
25649;SDS011;13505;45.196;5.696;2023-07-30T12:49:08;2.30;;;2.10;;
25649;SDS011;13505;45.196;5.696;2023-07-30T12:53:59;2.20;;;1.95;;
25649;SDS011;13505;45.196;5.696;2023-07-30T12:58:49;2.80;;;2.50;;
25649;SDS011;13505;45.196;5.696;2023-07-30T13:03:40;2.78;;;2.25;;
25649;SDS011;13505;45.196;5.696;2023-07-30T13:08:34;2.85;;;2.35;;
25649;SDS011;13505;45.196;5.696;2023-07-30T13:13:25;2.20;;;2.00;;
25649;SDS011;13505;45.196;5.696;2023-07-30T13:18:15;2.35;;;2.05;;
25649;SDS011;13505;45.196;5.696;2023-07-30T13:23:05;4.23;;;2.07;;
25649;SDS011;13505;45.196;5.696;2023-07-30T13:27:56;3.13;;;2.17;;
25649;SDS011;13505;45.196;5.696;2023-07-30T13:32:46;3.67;;;2.28;;
25649;SDS011;13505;45.196;5.696;2023-07-30T13:37:36;3.30;;;2.30;;
25649;SDS011;13505;45.196;5.696;2023-07-30T13:42:27;3.43;;;2.00;;
25649;SDS011;13505;45.196;5.696;2023-07-30T13:47:17;2.07;;;1.87;;
25649;SDS011;13505;45.196;5.696;2023-07-30T13:52:07;2.57;;;1.93;;
25649;SDS011;13505;45.196;5.696;2023-07-30T13:56:58;3.33;;;2.57;;
25649;SDS011;13505;45.196;5.696;2023-07-30T14:01:48;17.40;;;2.75;;
25649;SDS011;13505;45.196;5.696;2023-07-30T14:06:38;7.68;;;2.20;;
25649;SDS011;13505;45.196;5.696;2023-07-30T14:11:29;4.57;;;2.57;;
25649;SDS011;13505;45.196;5.696;2023-07-30T14:16:19;4.03;;;1.92;;
25649;SDS011;13505;45.196;5.696;2023-07-30T14:21:09;2.33;;;2.07;;
25649;SDS011;13505;45.196;5.696;2023-07-30T14:26:01;2.13;;;1.90;;
25649;SDS011;13505;45.196;5.696;2023-07-30T14:30:51;2.37;;;1.80;;
25649;SDS011;13505;45.196;5.696;2023-07-30T14:35:42;6.18;;;2.08;;
25649;SDS011;13505;45.196;5.696;2023-07-30T14:40:32;2.30;;;1.90;;
25649;SDS011;13505;45.196;5.696;2023-07-30T14:45:22;2.35;;;2.15;;
25649;SDS011;13505;45.196;5.696;2023-07-30T14:50:13;3.73;;;2.20;;
25649;SDS011;13505;45.196;5.696;2023-07-30T14:55:03;3.50;;;2.00;;
25649;SDS011;13505;45.196;5.696;2023-07-30T14:59:54;2.80;;;1.90;;
25649;SDS011;13505;45.196;5.696;2023-07-30T15:04:44;2.63;;;1.90;;
25649;SDS011;13505;45.196;5.696;2023-07-30T15:09:36;3.05;;;1.83;;
25649;SDS011;13505;45.196;5.696;2023-07-30T15:14:27;2.03;;;1.83;;
25649;SDS011;13505;45.196;5.696;2023-07-30T15:19:17;2.33;;;1.85;;
25649;SDS011;13505;45.196;5.696;2023-07-30T15:24:08;2.78;;;1.92;;
25649;SDS011;13505;45.196;5.696;2023-07-30T15:28:58;2.35;;;2.00;;
25649;SDS011;13505;45.196;5.696;2023-07-30T15:33:49;2.42;;;2.00;;
25649;SDS011;13505;45.196;5.696;2023-07-30T15:38:42;2.92;;;1.88;;
25649;SDS011;13505;45.196;5.696;2023-07-30T15:43:32;2.20;;;2.00;;
25649;SDS011;13505;45.196;5.696;2023-07-30T15:48:23;3.38;;;1.80;;
25649;SDS011;13505;45.196;5.696;2023-07-30T15:53:13;2.33;;;1.77;;
25649;SDS011;13505;45.196;5.696;2023-07-30T15:58:03;4.27;;;1.97;;
25649;SDS011;13505;45.196;5.696;2023-07-30T16:02:54;2.05;;;1.60;;
25649;SDS011;13505;45.196;5.696;2023-07-30T16:07:44;3.13;;;2.30;;
25649;SDS011;13505;45.196;5.696;2023-07-30T16:12:35;3.10;;;2.13;;
25649;SDS011;13505;45.196;5.696;2023-07-30T16:17:25;3.55;;;2.22;;
25649;SDS011;13505;45.196;5.696;2023-07-30T16:22:16;3.63;;;2.17;;
25649;SDS011;13505;45.196;5.696;2023-07-30T16:27:06;4.13;;;1.70;;
25649;SDS011;13505;45.196;5.696;2023-07-30T16:31:56;4.43;;;2.10;;
25649;SDS011;13505;45.196;5.696;2023-07-30T16:36:47;2.40;;;1.83;;
25649;SDS011;13505;45.196;5.696;2023-07-30T16:41:37;3.58;;;2.10;;
25649;SDS011;13505;45.196;5.696;2023-07-30T16:46:27;6.57;;;2.37;;
25649;SDS011;13505;45.196;5.696;2023-07-30T16:51:17;2.70;;;2.03;;
25649;SDS011;13505;45.196;5.696;2023-07-30T16:56:09;2.22;;;2.00;;
25649;SDS011;13505;45.196;5.696;2023-07-30T17:01:01;2.50;;;2.10;;
25649;SDS011;13505;45.196;5.696;2023-07-30T17:05:57;2.15;;;1.80;;
25649;SDS011;13505;45.196;5.696;2023-07-30T17:10:48;5.18;;;2.03;;
25649;SDS011;13505;45.196;5.696;2023-07-30T17:15:38;4.40;;;2.20;;
25649;SDS011;13505;45.196;5.696;2023-07-30T17:20:29;8.90;;;2.67;;
25649;SDS011;13505;45.196;5.696;2023-07-30T17:25:19;3.57;;;2.53;;
25649;SDS011;13505;45.196;5.696;2023-07-30T17:30:10;2.70;;;1.93;;
25649;SDS011;13505;45.196;5.696;2023-07-30T17:35:00;2.67;;;2.00;;
25649;SDS011;13505;45.196;5.696;2023-07-30T17:39:50;2.60;;;1.80;;
25649;SDS011;13505;45.196;5.696;2023-07-30T17:44:41;3.60;;;2.10;;
25649;SDS011;13505;45.196;5.696;2023-07-30T17:49:31;2.20;;;1.80;;
25649;SDS011;13505;45.196;5.696;2023-07-30T17:54:21;3.58;;;1.90;;
25649;SDS011;13505;45.196;5.696;2023-07-30T17:59:12;3.63;;;2.00;;
25649;SDS011;13505;45.196;5.696;2023-07-30T18:04:02;2.53;;;1.80;;
25649;SDS011;13505;45.196;5.696;2023-07-30T18:08:52;3.55;;;2.00;;
25649;SDS011;13505;45.196;5.696;2023-07-30T18:13:43;2.95;;;1.83;;
25649;SDS011;13505;45.196;5.696;2023-07-30T18:18:33;4.10;;;2.53;;
25649;SDS011;13505;45.196;5.696;2023-07-30T18:23:23;3.53;;;2.37;;
25649;SDS011;13505;45.196;5.696;2023-07-30T18:28:14;2.55;;;1.95;;
25649;SDS011;13505;45.196;5.696;2023-07-30T18:33:04;3.27;;;2.10;;
25649;SDS011;13505;45.196;5.696;2023-07-30T18:37:54;3.63;;;1.83;;
25649;SDS011;13505;45.196;5.696;2023-07-30T18:42:45;2.85;;;1.90;;
25649;SDS011;13505;45.196;5.696;2023-07-30T18:47:39;4.28;;;2.00;;
25649;SDS011;13505;45.196;5.696;2023-07-30T18:52:29;2.35;;;1.80;;
25649;SDS011;13505;45.196;5.696;2023-07-30T18:57:21;2.50;;;1.77;;
25649;SDS011;13505;45.196;5.696;2023-07-30T19:02:11;3.77;;;1.97;;
25649;SDS011;13505;45.196;5.696;2023-07-30T19:07:01;2.53;;;1.80;;
25649;SDS011;13505;45.196;5.696;2023-07-30T19:11:52;2.95;;;1.95;;
25649;SDS011;13505;45.196;5.696;2023-07-30T19:16:42;3.00;;;1.70;;
25649;SDS011;13505;45.196;5.696;2023-07-30T19:21:32;2.87;;;1.80;;
25649;SDS011;13505;45.196;5.696;2023-07-30T19:26:23;2.50;;;1.83;;
25649;SDS011;13505;45.196;5.696;2023-07-30T19:31:13;3.22;;;1.85;;
25649;SDS011;13505;45.196;5.696;2023-07-30T19:36:03;4.13;;;1.90;;
25649;SDS011;13505;45.196;5.696;2023-07-30T19:40:54;2.50;;;1.70;;
25649;SDS011;13505;45.196;5.696;2023-07-30T19:45:44;4.85;;;2.03;;
25649;SDS011;13505;45.196;5.696;2023-07-30T19:50:35;3.20;;;1.85;;
25649;SDS011;13505;45.196;5.696;2023-07-30T19:55:25;3.33;;;2.00;;
25649;SDS011;13505;45.196;5.696;2023-07-30T20:00:15;3.67;;;1.80;;
25649;SDS011;13505;45.196;5.696;2023-07-30T20:05:06;3.10;;;1.77;;
25649;SDS011;13505;45.196;5.696;2023-07-30T20:09:56;3.28;;;1.70;;
25649;SDS011;13505;45.196;5.696;2023-07-30T20:14:47;3.77;;;1.90;;
25649;SDS011;13505;45.196;5.696;2023-07-30T20:19:37;1.92;;;1.50;;
25649;SDS011;13505;45.196;5.696;2023-07-30T20:24:28;2.53;;;1.55;;
25649;SDS011;13505;45.196;5.696;2023-07-30T20:29:19;2.22;;;1.42;;
25649;SDS011;13505;45.196;5.696;2023-07-30T20:34:10;3.17;;;1.65;;
25649;SDS011;13505;45.196;5.696;2023-07-30T20:39:00;5.47;;;1.90;;
25649;SDS011;13505;45.196;5.696;2023-07-30T20:43:51;4.25;;;1.80;;
25649;SDS011;13505;45.196;5.696;2023-07-30T20:48:41;2.22;;;1.48;;
25649;SDS011;13505;45.196;5.696;2023-07-30T20:53:32;2.47;;;1.65;;
25649;SDS011;13505;45.196;5.696;2023-07-30T20:58:22;3.97;;;1.90;;
25649;SDS011;13505;45.196;5.696;2023-07-30T21:03:12;2.67;;;1.80;;
25649;SDS011;13505;45.196;5.696;2023-07-30T21:08:03;4.22;;;2.00;;
25649;SDS011;13505;45.196;5.696;2023-07-30T21:12:53;4.45;;;1.65;;
25649;SDS011;13505;45.196;5.696;2023-07-30T21:17:43;4.60;;;1.97;;
25649;SDS011;13505;45.196;5.696;2023-07-30T21:22:34;2.63;;;1.30;;
25649;SDS011;13505;45.196;5.696;2023-07-30T21:27:24;2.77;;;1.67;;
25649;SDS011;13505;45.196;5.696;2023-07-30T21:32:15;1.77;;;1.48;;
25649;SDS011;13505;45.196;5.696;2023-07-30T21:37:05;4.07;;;1.83;;
25649;SDS011;13505;45.196;5.696;2023-07-30T21:41:56;1.85;;;1.50;;
25649;SDS011;13505;45.196;5.696;2023-07-30T21:46:47;5.30;;;1.90;;
25649;SDS011;13505;45.196;5.696;2023-07-30T21:51:37;4.55;;;1.50;;
25649;SDS011;13505;45.196;5.696;2023-07-30T21:56:28;2.60;;;1.42;;
